Sunday, January 20, 2019, 2:30 AM EST
Back to Local

KHIE, Mt Washington Regional Airport

Location: Jefferson, NH, United States Lat: 44.367
Local Time: 2:30 AM EST ( 7:30 GMT) Lon: -71.55
Time Zone: US/Eastern Elev: 1072 ft

Show me the last for .
Show Decoded

2019-01-20 01:52 METAR KHIE 200652Z AUTO 10009G16KT 7SM BKN048 OVC070 M11/M14 A2998 RMK AO2 SNE17
                 SLP174 P0000 T11061144 =
2019-01-20 00:52 METAR KHIE 200552Z AUTO 08007KT 050V120 3SM -SN OVC036 M11/M14 A3004 RMK AO2
                 SNB10 SLP197 P0000 60001 T11111144 11106 21128 58026 =
2019-01-20 00:38 METAR KHIE 200538Z AUTO 08009G14KT 2 1/2SM -SN OVC034 M11/M14 A3005 RMK AO2
                 SNB10 P0000 T11111144 =
2019-01-19 23:52 METAR KHIE 200452Z AUTO 10010G16KT 5SM HZ OVC046 M11/M15 A3008 RMK AO2 SLP212
                 T11111150 410671172 =
2019-01-19 22:52 METAR KHIE 200352Z AUTO 08007G16KT 10SM OVC050 M11/M15 A3011 RMK AO2 SLP220
                 T11061150 =
2019-01-19 21:52 METAR KHIE 200252Z AUTO 08007KT 10SM OVC060 M11/M14 A3012 RMK AO2 SNE06 SLP225
                 P0000 60001 T11061144 58019 =
2019-01-19 20:52 METAR KHIE 200152Z AUTO 02006KT 3SM -SN BR OVC033 M12/M14 A3016 RMK AO2 SLP239
                 P0001 T11221144 =
2019-01-19 20:38 METAR KHIE 200138Z AUTO 02005KT 2SM -SN BR OVC029 M12/M14 A3017 RMK AO2 P0001
                 T11221144 =
2019-01-19 19:52 METAR KHIE 200052Z AUTO VRB03KT 1 1/2SM -SN BR OVC028 M12/M14 A3018 RMK AO2
                 SLP247 P0000 T11221144 =
2019-01-19 19:49 METAR KHIE 200049Z AUTO 36003KT 1 1/2SM -SN BR OVC028 M12/M14 A3018 RMK AO2
                 P0000 =
2019-01-19 19:38 METAR KHIE 200038Z AUTO 36004KT 1 3/4SM -SN OVC030 M12/M15 A3018 RMK AO2 P0000
                 T11221150 =
2019-01-19 19:24 METAR KHIE 200024Z AUTO 36003KT 2 1/2SM -SN OVC028 M12/M15 A3018 RMK AO2 P0000
                 T11221150 =
2019-01-19 18:52 METAR KHIE 192352Z AUTO 35003KT 1 3/4SM -SN BR OVC026 M13/M15 A3019 RMK AO2
                 SLP249 P0001 60007 T11281150 11111 21128 55016 =
2019-01-19 18:15 METAR KHIE 192315Z AUTO 36004KT 1 1/2SM -SN BR OVC018 M13/M15 A3020 RMK AO2
                 P0001 T11281150 =
2019-01-19 18:06 METAR KHIE 192306Z AUTO 01004KT 1SM -SN BR VV015 M13/M15 A3020 RMK AO2 P0000
                 T11281150 =
2019-01-19 17:52 METAR KHIE 192252Z AUTO 02003KT 3/4SM -SN BR VV010 M13/M15 A3021 RMK AO2 SLP257
                 P0003 T11281150 =
2019-01-19 17:35 METAR KHIE 192235Z AUTO 02003KT 3/4SM -SN BR VV011 M13/M15 A3022 RMK AO2 P0002
                 T11281150 =
2019-01-19 16:52 METAR KHIE 192152Z AUTO 03005KT 1SM -SN BR VV014 M13/M15 A3023 RMK AO2 SLP263
                 P0002 T11281150 =
2019-01-19 16:45 METAR KHIE 192145Z AUTO 03003KT 1SM -SN BR VV014 M13/M15 A3023 RMK AO2 P0002
                 T11281150 =
2019-01-19 15:52 METAR KHIE 192052Z AUTO 00000KT 1/2SM SN VV011 M12/M16 A3025 RMK AO2 SNB00
                 SLP269 P0001 60001 T11221156 53007 =
2019-01-19 15:32 METAR KHIE 192032Z AUTO 00000KT 1/2SM SN VV013 M12/M16 A3025 RMK AO2 SNB00 P0000
                 T11221156 =
2019-01-19 15:20 METAR KHIE 192020Z AUTO 00000KT 3/4SM -SN VV017 M12/M17 A3024 RMK AO2 SNB00
                 P0000 T11171167 =
2019-01-19 15:10 METAR KHIE 192010Z AUTO 00000KT 1SM -SN OVC023 M12/M18 A3024 RMK AO2 SNB00 P0000
                 T11171178 =
2019-01-19 15:03 METAR KHIE 192003Z AUTO 00000KT 2 1/2SM -SN OVC029 M12/M19 A3023 RMK AO2 SNB00
                 P0000 T11171189 =
2019-01-19 14:52 METAR KHIE 191952Z AUTO 30003KT 10SM BKN038 OVC047 M12/M20 A3023 RMK AO2 SLP262
                 T11171200 =
2019-01-19 13:52 METAR KHIE 191852Z AUTO 36003KT 10SM OVC070 M11/M20 A3021 RMK AO2 SLP252
                 T11111200 =
2019-01-19 12:52 METAR KHIE 191752Z AUTO 36003KT 10SM OVC075 M12/M19 A3023 RMK AO2 SLP261
                 T11171194 11117 21172 58024 =
2019-01-19 11:52 METAR KHIE 191652Z AUTO 00000KT 10SM OVC080 M12/M21 A3029 RMK AO2 SLP282
                 T11221206 =
2019-01-19 10:52 METAR KHIE 191552Z AUTO 00000KT 10SM OVC090 M13/M19 A3030 RMK AO2 SLP286
                 T11331189 =
2019-01-19 09:52 METAR KHIE 191452Z AUTO 00000KT 10SM SCT018 OVC100 M14/M19 A3031 RMK AO2 SLP286
                 T11441194 51021 =
2019-01-19 08:52 METAR KHIE 191352Z AUTO 04003KT 10SM OVC019 M16/M20 A3030 RMK AO2 SLP286
                 T11561200 =
2019-01-19 08:28 METAR KHIE 191328Z AUTO 04003KT 10SM BKN019 M16/M20 A3029 RMK AO2 T11561200 =
2019-01-19 07:52 METAR KHIE 191252Z AUTO 00000KT 10SM CLR M16/M19 A3027 RMK AO2 SLP274 T11611194
                 =
2019-01-19 06:52 METAR KHIE 191152Z AUTO 02004KT 10SM CLR M15/M19 A3024 RMK AO2 SLP264 T11501189
                 11078 21156 53022 =
2019-01-19 05:52 METAR KHIE 191052Z AUTO 00000KT 10SM FEW043 M14/M17 A3022 RMK AO2 SLP256
                 T11441167 =
2019-01-19 05:12 METAR KHIE 191012Z AUTO 36006KT 10SM SCT027 M12/M16 A3020 RMK AO2 T11221156 =
2019-01-19 04:52 METAR KHIE 190952Z AUTO 36005KT 10SM OVC027 M11/M15 A3019 RMK AO2 SLP243
                 T11111150 =
2019-01-19 04:41 METAR KHIE 190941Z AUTO 05004KT 10SM OVC028 M11/M14 A3018 RMK AO2 T11111144 =
2019-01-19 04:32 METAR KHIE 190932Z AUTO 08003KT 10SM OVC030 M11/M14 A3018 RMK AO2 T11111144 =
2019-01-19 03:52 METAR KHIE 190852Z AUTO 03004KT 10SM BKN028 OVC033 M11/M14 A3017 RMK AO2 SLP238
                 T11061144 53024 =
2019-01-19 03:18 METAR KHIE 190818Z AUTO 34003KT 10SM SCT026 OVC033 M12/M14 A3016 RMK AO2
                 T11221144 =
2019-01-19 03:10 METAR KHIE 190810Z AUTO 00000KT 10SM BKN026 OVC033 M12/M14 A3015 RMK AO2
                 T11171139 =
2019-01-19 02:52 METAR KHIE 190752Z AUTO 00000KT 10SM OVC032 M12/M14 A3015 RMK AO2 SLP229
                 T11221139 =

Support USWX by starting your Amazon purchase here.